Crown Of Scandinavia — OXRA6 — position and weather

sailwx.info

Track history (hours):
 
Tides and Currents Weather Stations Pressure Air Temp Water Temp Dewpoint Dewpoint Depression Visibility Wind Speed Wind Dir Waves Ship Positions

Crown Of Scandinavia

Last reported at 2017-Nov-20 00:30 UTC. Time now 2017-Nov-22 07:22 UTC.
Position N 57°35' E 011°19'.

Length 171 m; draft 6.3 m.

Type: Ship. MMSI: 219592000.

Date/timePositionNaut miles runAvg speedWind from/ knotsBaromVisibWave heightAir tempDewpointWater temp
2017-Nov-20 00:30N 57°35' E 011°19'917.0
2017-Nov-20 00:00N 57°43' E 011°13'916.8
2017-Nov-19 23:29N 57°51' E 011°07'816.8
2017-Nov-19 23:00N 57°58' E 011°01'816.4
2017-Nov-19 22:30N 58°06' E 010°55'816.3
2017-Nov-19 22:00N 58°13' E 010°49'1215.8
2017-Nov-19 21:13N 58°25' E 010°40'315.9
2017-Nov-19 21:00N 58°28' E 010°38'815.9
2017-Nov-19 20:30N 58°36' E 010°36'816.1
2017-Nov-19 20:00N 58°44' E 010°35'816.4
2017-Nov-19 19:30N 58°52' E 010°35'917.1
2017-Nov-19 19:00N 59°01' E 010°37'917.6
2017-Nov-19 18:30N 59°10' E 010°38'918.0
2017-Nov-19 18:00N 59°18' E 010°36'917.9
2017-Nov-19 17:30N 59°27' E 010°33'816.8
2017-Nov-19 17:00N 59°35' E 010°38'714.7
2017-Nov-19 16:30N 59°43' E 010°35'816.0
2017-Nov-19 16:00N 59°50' E 010°35'611.9
2017-Nov-19 15:30N 59°54' E 010°45'0 0.4
2017-Nov-19 15:00N 59°54' E 010°45'0 0.0
2017-Nov-19 14:29N 59°54' E 010°45'0 0.0
2017-Nov-19 13:59N 59°54' E 010°45'0 0.0
2017-Nov-19 13:29N 59°54' E 010°45'0 0.0
2017-Nov-19 12:59N 59°54' E 010°45'0 0.0
2017-Nov-19 12:29N 59°54' E 010°45'0 0.0
2017-Nov-19 11:59N 59°54' E 010°45'0 0.0
2017-Nov-19 11:29N 59°54' E 010°45'0 0.0
2017-Nov-19 10:59N 59°54' E 010°45'0 0.0
2017-Nov-19 10:29N 59°54' E 010°45'0 0.0
2017-Nov-19 09:59N 59°54' E 010°45'0 0.0
2017-Nov-19 09:29N 59°54' E 010°45'0 0.0
2017-Nov-19 08:59N 59°54' E 010°45'0 0.9
2017-Nov-19 08:30N 59°54' E 010°44'713.9
2017-Nov-19 08:00N 59°49' E 010°35'714.9
2017-Nov-19 07:30N 59°41' E 010°36'713.6
2017-Nov-19 07:00N 59°35' E 010°38'815.6
2017-Nov-19 06:30N 59°27' E 010°34'815.6
2017-Nov-19 06:00N 59°19' E 010°36'815.8
2017-Nov-19 05:30N 59°12' E 010°39'815.8
2017-Nov-19 05:00N 59°04' E 010°41'815.7
2017-Nov-19 04:30N 58°56' E 010°44'815.7
2017-Nov-19 04:00N 58°48' E 010°46'815.0
2017-Nov-19 03:30N 58°41' E 010°49'917.3
2017-Nov-19 03:00N 58°32' E 010°52'917.3
2017-Nov-19 02:30N 58°24' E 010°56'917.5
2017-Nov-19 02:00N 58°16' E 011°02'918.0
2017-Nov-19 01:30N 58°08' E 011°08'917.3
2017-Nov-19 01:00N 57°60' E 011°15'917.2
2017-Nov-19 00:31N 57°52' E 011°20'816.6
2017-Nov-19 00:01N 57°44' E 011°26'816.9
2017-Nov-18 23:31N 57°36' E 011°31'917.0
2017-Nov-18 23:00N 57°28' E 011°37'816.4
2017-Nov-18 22:30N 57°21' E 011°44'816.5
2017-Nov-18 22:00N 57°14' E 011°52'5815.9
2017-Nov-18 18:21N 56°18' E 012°24'615.7
2017-Nov-18 18:00N 56°13' E 012°27'714.9
2017-Nov-18 17:30N 56°07' E 012°33'714.1
2017-Nov-18 17:00N 56°01' E 012°41'815.8
2017-Nov-18 16:30N 55°53' E 012°44'714.4
2017-Nov-18 16:00N 55°46' E 012°42'510.6
2017-Nov-18 15:30N 55°42' E 012°36'0 0.0
2017-Nov-18 15:00N 55°42' E 012°36'0 0.0
2017-Nov-18 14:30N 55°42' E 012°36'0 0.0
2017-Nov-18 14:00N 55°42' E 012°36'0 0.0
2017-Nov-18 13:30N 55°42' E 012°36'0 0.0
2017-Nov-18 13:00N 55°42' E 012°36'0 0.0
2017-Nov-18 12:30N 55°42' E 012°36'0 0.0
2017-Nov-18 12:00N 55°42' E 012°36'0 0.0
2017-Nov-18 11:30N 55°42' E 012°36'0 0.0
2017-Nov-18 11:00N 55°42' E 012°36'0 0.0
2017-Nov-18 10:31N 55°42' E 012°36'2 4.0
2017-Nov-18 10:01N 55°43' E 012°39'815.4
2017-Nov-18 09:31N 55°51' E 012°41'815.8
2017-Nov-18 09:01N 55°59' E 012°40'816.7
2017-Nov-18 08:31N 56°06' E 012°33'917.8
2017-Nov-18 08:00N 56°13' E 012°23'5717.7
2017-Nov-18 04:46N 57°05' E 011°39'517.8
2017-Nov-18 04:29N 57°10' E 011°35'817.8
2017-Nov-18 04:00N 57°18' E 011°30'816.0
2017-Nov-18 03:31N 57°25' E 011°25'815.4
2017-Nov-18 03:00N 57°33' E 011°22'817.0
2017-Nov-18 02:30N 57°40' E 011°13'816.7
2017-Nov-18 02:00N 57°48' E 011°08'916.2
2017-Nov-18 01:28N 57°56' E 011°02'816.0
2017-Nov-18 00:59N 58°03' E 010°57'815.6
2017-Nov-18 00:30N 58°10' E 010°52'915.6
2017-Nov-17 23:55N 58°19' E 010°45'614.9
2017-Nov-17 23:30N 58°24' E 010°41'714.9
2017-Nov-17 23:00N 58°31' E 010°36'715.0
2017-Nov-17 22:30N 58°38' E 010°31'815.4
2017-Nov-17 22:01N 58°45' E 010°26'815.6
2017-Nov-17 21:31N 58°53' E 010°21'612.6
2017-Nov-17 21:01N 58°59' E 010°26'612.8
2017-Nov-17 20:30N 59°03' E 010°35'713.1
2017-Nov-17 20:00N 59°10' E 010°38'611.9
2017-Nov-17 19:30N 59°16' E 010°36'611.2
2017-Nov-17 19:00N 59°21' E 010°35'611.5
2017-Nov-17 18:31N 59°27' E 010°33'611.7
2017-Nov-17 18:00N 59°32' E 010°36'510.8
2017-Nov-17 17:31N 59°38' E 010°37'611.1
2017-Nov-17 17:00N 59°43' E 010°34'611.2
2017-Nov-17 16:30N 59°49' E 010°34'611.4
2017-Nov-17 16:01N 59°53' E 010°41'2 4.2
2017-Nov-17 15:30N 59°54' E 010°45'0 0.0
2017-Nov-17 14:59N 59°54' E 010°45'0 0.0
2017-Nov-17 14:29N 59°54' E 010°45'0 0.0
2017-Nov-17 13:59N 59°54' E 010°45'0 0.0
2017-Nov-17 13:29N 59°54' E 010°45'0 0.0
2017-Nov-17 12:59N 59°54' E 010°45'0 0.0
2017-Nov-17 12:29N 59°54' E 010°45'0 0.0
2017-Nov-17 11:59N 59°54' E 010°45'0 0.0
2017-Nov-17 11:29N 59°54' E 010°45'0 0.0
2017-Nov-17 10:59N 59°54' E 010°45'0 0.0
2017-Nov-17 10:29N 59°54' E 010°45'0 0.0
2017-Nov-17 09:59N 59°54' E 010°45'0 0.0
2017-Nov-17 09:29N 59°54' E 010°45'0 0.0
2017-Nov-17 08:59N 59°54' E 010°45'0 0.6
2017-Nov-17 08:30N 59°54' E 010°45'510.7
2017-Nov-17 08:01N 59°51' E 010°37'714.2
2017-Nov-17 07:30N 59°44' E 010°35'713.3
2017-Nov-17 07:00N 59°37' E 010°38'816.5
2017-Nov-17 06:31N 59°29' E 010°35'816.7
2017-Nov-17 06:01N 59°21' E 010°36'917.5
2017-Nov-17 05:31N 59°12' E 010°38'917.1
2017-Nov-17 05:01N 59°04' E 010°41'816.6
2017-Nov-17 04:31N 58°55' E 010°43'816.3
2017-Nov-17 04:00N 58°47' E 010°44'816.6
2017-Nov-17 03:31N 58°39' E 010°46'917.6
2017-Nov-17 03:00N 58°30' E 010°48'917.6
2017-Nov-17 02:30N 58°21' E 010°49'917.4
2017-Nov-17 02:00N 58°13' E 010°50'917.2
2017-Nov-17 01:29N 58°04' E 010°50'816.8
2017-Nov-17 01:00N 57°56' E 010°52'816.1
2017-Nov-17 00:31N 57°48' E 010°53'815.6
2017-Nov-17 00:00N 57°42' E 011°03'815.9
2017-Nov-16 23:31N 57°36' E 011°12'816.1
2017-Nov-16 23:00N 57°30' E 011°23'816.8
2017-Nov-16 22:31N 57°23' E 011°30'917.1
2017-Nov-16 22:00N 57°15' E 011°36'816.7
2017-Nov-16 21:30N 57°07' E 011°40'5715.8
2017-Nov-16 17:53N 56°14' E 012°22'718.1
2017-Nov-16 17:31N 56°09' E 012°30'817.0
2017-Nov-16 17:01N 56°02' E 012°40'917.9
2017-Nov-16 16:31N 55°54' E 012°44'816.7
2017-Nov-16 16:01N 55°46' E 012°41'5 9.5
2017-Nov-16 15:30N 55°42' E 012°36'0 0.0
2017-Nov-16 15:00N 55°42' E 012°36'0 0.0
2017-Nov-16 14:30N 55°42' E 012°36'0 0.0
2017-Nov-16 14:00N 55°42' E 012°36'0 0.0
2017-Nov-16 13:30N 55°42' E 012°36'0 0.0
2017-Nov-16 13:00N 55°42' E 012°36'0 0.0
2017-Nov-16 12:30N 55°42' E 012°36'0 0.0
2017-Nov-16 12:00N 55°42' E 012°36'0 0.0
2017-Nov-16 11:30N 55°42' E 012°36'0 0.0
2017-Nov-16 10:57N 55°42' E 012°36'0 0.0
2017-Nov-16 10:30N 55°42' E 012°36'0 0.0
2017-Nov-16 10:00N 55°42' E 012°36'0 0.0
2017-Nov-16 09:30N 55°42' E 012°36'0 0.0
2017-Nov-16 09:00N 55°42' E 012°36'0 1.0
2017-Nov-16 08:30N 55°42' E 012°37'612.5
2017-Nov-16 08:00N 55°48' E 012°42'714.7
2017-Nov-16 07:31N 55°55' E 012°39'714.9
2017-Nov-16 07:00N 56°02' E 012°39'713.8
2017-Nov-16 06:30N 56°08' E 012°31'815.3
2017-Nov-16 06:00N 56°14' E 012°22'815.8
2017-Nov-16 05:29N 56°20' E 012°13'4016.2
2017-Nov-16 03:03N 56°56' E 011°45'216.7
2017-Nov-16 02:55N 56°58' E 011°43'716.9
2017-Nov-16 02:30N 57°05' E 011°38'917.1
2017-Nov-16 02:00N 57°13' E 011°32'917.4
2017-Nov-16 01:31N 57°21' E 011°28'916.9
2017-Nov-16 01:00N 57°29' E 011°24'816.6
2017-Nov-16 00:31N 57°37' E 011°20'817.0
2017-Nov-16 00:01N 57°46' E 011°18'916.9
2017-Nov-15 23:30N 57°54' E 011°16'816.3
2017-Nov-15 23:00N 58°02' E 011°13'816.1
2017-Nov-15 22:29N 58°10' E 011°08'816.5
2017-Nov-15 22:00N 58°17' E 011°02'816.4
2017-Nov-15 21:30N 58°25' E 010°57'816.7
2017-Nov-15 21:01N 58°33' E 010°52'917.1
2017-Nov-15 20:31N 58°41' E 010°46'917.3
2017-Nov-15 20:01N 58°49' E 010°44'917.1
2017-Nov-15 19:30N 58°58' E 010°41'917.1
2017-Nov-15 19:00N 59°06' E 010°39'917.3
2017-Nov-15 18:30N 59°15' E 010°37'917.2
2017-Nov-15 18:00N 59°23' E 010°34'816.5
2017-Nov-15 17:30N 59°32' E 010°35'816.2
2017-Nov-15 17:00N 59°40' E 010°37'511.0
2017-Nov-15 16:31N 59°45' E 010°33'815.0
2017-Nov-15 16:01N 59°52' E 010°38'4 8.0
2017-Nov-15 15:30N 59°54' E 010°45'0 0.0
2017-Nov-15 15:00N 59°54' E 010°45'0 0.0
2017-Nov-15 14:28N 59°54' E 010°45'0 0.0
2017-Nov-15 13:58N 59°54' E 010°45'0 0.0
2017-Nov-15 13:28N 59°54' E 010°45'0 0.0
2017-Nov-15 12:58N 59°54' E 010°45'0 0.0
2017-Nov-15 12:28N 59°54' E 010°45'0 0.0
2017-Nov-15 11:58N 59°54' E 010°45'0 0.0
2017-Nov-15 11:28N 59°54' E 010°45'0 0.0
2017-Nov-15 10:58N 59°54' E 010°45'0 0.0
2017-Nov-15 10:28N 59°54' E 010°45'0 0.0
2017-Nov-15 09:58N 59°54' E 010°45'0 0.0
2017-Nov-15 09:28N 59°54' E 010°45'0 0.0
2017-Nov-15 08:58N 59°54' E 010°45'0 0.7
2017-Nov-15 08:30N 59°54' E 010°45'510.1
2017-Nov-15 08:00N 59°51' E 010°37'714.4
2017-Nov-15 07:31N 59°44' E 010°35'612.7
2017-Nov-15 07:01N 59°37' E 010°38'816.4
2017-Nov-15 06:31N 59°29' E 010°35'816.5
2017-Nov-15 06:01N 59°21' E 010°36'816.7
2017-Nov-15 05:31N 59°13' E 010°38'816.6
2017-Nov-15 05:01N 59°05' E 010°38'917.1
2017-Nov-15 04:31N 58°56' E 010°36'917.0
2017-Nov-15 04:01N 58°48' E 010°34'816.9
2017-Nov-15 03:31N 58°39' E 010°36'917.3
2017-Nov-15 03:00N 58°31' E 010°37'917.2
2017-Nov-15 02:30N 58°22' E 010°43'816.7
2017-Nov-15 02:00N 58°15' E 010°48'816.6
2017-Nov-15 01:29N 58°06' E 010°53'816.4
2017-Nov-15 01:00N 57°59' E 010°59'816.5
2017-Nov-15 00:30N 57°51' E 011°04'816.2
2017-Nov-15 00:01N 57°44' E 011°10'816.3
2017-Nov-14 23:30N 57°37' E 011°18'816.6
2017-Nov-14 23:00N 57°31' E 011°29'816.7
2017-Nov-14 22:30N 57°25' E 011°40'917.0
2017-Nov-14 21:59N 57°17' E 011°48'1016.6
2017-Nov-14 21:21N 57°08' E 011°57'5415.9
2017-Nov-14 17:59N 56°17' E 012°26'715.2
2017-Nov-14 17:31N 56°10' E 012°30'816.1
2017-Nov-14 17:01N 56°04' E 012°39'816.1
2017-Nov-14 16:31N 55°56' E 012°43'816.0
2017-Nov-14 16:01N 55°48' E 012°43'713.0
2017-Nov-14 15:30N 55°42' E 012°37'1 1.0
2017-Nov-14 14:57N 55°42' E 012°36'0 0.0
2017-Nov-14 14:30N 55°42' E 012°36'0 0.0
2017-Nov-14 14:00N 55°42' E 012°36'0 0.0
2017-Nov-14 13:30N 55°42' E 012°36'0 0.0
2017-Nov-14 13:00N 55°42' E 012°36'0 0.0
2017-Nov-14 12:30N 55°42' E 012°36'0 0.0
2017-Nov-14 12:00N 55°42' E 012°36'0 0.0
2017-Nov-14 11:30N 55°42' E 012°36'0 0.0
2017-Nov-14 11:00N 55°42' E 012°36'0 0.0
2017-Nov-14 10:30N 55°42' E 012°36'0 0.0
2017-Nov-14 10:00N 55°42' E 012°36'0 0.0
2017-Nov-14 09:30N 55°42' E 012°36'0 0.0
2017-Nov-14 09:00N 55°42' E 012°36'0 0.7
2017-Nov-14 08:29N 55°42' E 012°36'510.4
2017-Nov-14 08:00N 55°46' E 012°41'714.7
2017-Nov-14 07:30N 55°54' E 012°40'714.7
2017-Nov-14 07:00N 56°01' E 012°40'714.3
2017-Nov-14 06:30N 56°07' E 012°32'714.8
2017-Nov-14 06:00N 56°12' E 012°23'5616.6
2017-Nov-14 02:37N 57°03' E 011°41'317.1
2017-Nov-14 02:26N 57°06' E 011°39'716.7
2017-Nov-14 02:00N 57°13' E 011°34'816.7
2017-Nov-14 01:30N 57°21' E 011°29'816.4
2017-Nov-14 01:01N 57°29' E 011°24'816.4
2017-Nov-14 00:30N 57°37' E 011°23'816.3
2017-Nov-14 00:01N 57°45' E 011°22'816.1
2017-Nov-13 23:31N 57°53' E 011°19'816.2
2017-Nov-13 23:00N 58°01' E 011°14'816.2
2017-Nov-13 22:30N 58°08' E 011°08'816.0
2017-Nov-13 22:00N 58°16' E 011°03'9 0.4
2017-Nov-13 02:01N 58°17' E 010°47'916.8
2017-Nov-13 01:29N 58°09' E 010°53'816.5
2017-Nov-13 01:00N 58°01' E 010°58'815.8
2017-Nov-13 00:30N 57°54' E 011°03'815.2
2017-Nov-13 00:01N 57°47' E 011°08'815.6
2017-Nov-12 23:30N 57°39' E 011°13'816.2
2017-Nov-12 23:00N 57°32' E 011°21'816.1
2017-Nov-12 22:30N 57°25' E 011°29'816.4
2017-Nov-12 22:00N 57°18' E 011°34'816.9
2017-Nov-12 21:30N 57°10' E 011°38'1116.7
2017-Nov-12 20:52N 56°60' E 011°46'5016.5
2017-Nov-12 17:50N 56°15' E 012°25'516.5
2017-Nov-12 17:30N 56°10' E 012°30'815.7
2017-Nov-12 17:01N 56°04' E 012°39'815.7
2017-Nov-12 16:31N 55°57' E 012°43'815.3
2017-Nov-12 16:00N 55°49' E 012°44'714.3
2017-Nov-12 15:30N 55°43' E 012°37'1 2.0
2017-Nov-12 15:00N 55°42' E 012°36'0 0.0
2017-Nov-12 14:29N 55°42' E 012°36'0 0.0
2017-Nov-12 13:59N 55°42' E 012°36'0 0.0
2017-Nov-12 13:29N 55°42' E 012°36'0 0.0
2017-Nov-12 12:59N 55°42' E 012°36'0 0.0
2017-Nov-12 12:29N 55°42' E 012°36'0 0.0
2017-Nov-12 11:59N 55°42' E 012°36'0 0.0
2017-Nov-12 11:29N 55°42' E 012°36'0 0.0
2017-Nov-12 10:59N 55°42' E 012°36'0 0.0
2017-Nov-12 10:29N 55°42' E 012°36'0 0.0
2017-Nov-12 09:59N 55°42' E 012°36'0 0.0
2017-Nov-12 09:29N 55°42' E 012°36'0 0.0
2017-Nov-12 08:59N 55°42' E 012°36'1 1.7
2017-Nov-12 08:31N 55°43' E 012°37'714.3
2017-Nov-12 08:00N 55°49' E 012°42'815.4
2017-Nov-12 07:30N 55°57' E 012°40'815.2
2017-Nov-12 07:00N 56°04' E 012°37'918.6
2017-Nov-12 06:31N 56°12' E 012°27'6818.8
2017-Nov-12 02:53N 57°17' E 011°50'718.9
2017-Nov-12 02:30N 57°23' E 011°44'919.0
2017-Nov-12 02:00N 57°31' E 011°35'1019.4
2017-Nov-12 01:30N 57°40' E 011°26'918.4
2017-Nov-12 01:00N 57°48' E 011°18'918.1
2017-Nov-12 00:30N 57°56' E 011°10'1018.2
2017-Nov-11 23:58N 58°04' E 011°01'613.1
2017-Nov-11 23:30N 58°09' E 010°54'611.4
2017-Nov-11 23:00N 58°04' E 010°57'612.4
2017-Nov-11 22:30N 58°10' E 010°53'815.1
2017-Nov-11 21:59N 58°16' E 010°46'714.7
2017-Nov-11 21:30N 58°23' E 010°41'714.4
2017-Nov-11 21:00N 58°30' E 010°38'714.7
2017-Nov-11 20:30N 58°37' E 010°36'815.5
2017-Nov-11 20:00N 58°45' E 010°35'815.9
2017-Nov-11 19:30N 58°53' E 010°35'816.2
2017-Nov-11 19:00N 59°01' E 010°37'816.9
2017-Nov-11 18:30N 59°09' E 010°38'817.0
2017-Nov-11 18:00N 59°18' E 010°36'816.8
2017-Nov-11 17:30N 59°26' E 010°33'816.2
2017-Nov-11 17:00N 59°34' E 010°37'714.9
2017-Nov-11 16:30N 59°41' E 010°36'815.1
2017-Nov-11 16:00N 59°49' E 010°35'714.1
2017-Nov-11 15:30N 59°54' E 010°44'0 0.8
2017-Nov-11 14:58N 59°54' E 010°45'0 0.0
2017-Nov-11 14:28N 59°54' E 010°45'0 0.0
2017-Nov-11 13:58N 59°54' E 010°45'0 0.0
2017-Nov-11 13:28N 59°54' E 010°45'0 0.0
2017-Nov-11 12:58N 59°54' E 010°45'0 0.0
2017-Nov-11 12:28N 59°54' E 010°45'0 0.0
2017-Nov-11 11:58N 59°54' E 010°45'0 0.0
2017-Nov-11 11:28N 59°54' E 010°45'0 0.0
2017-Nov-11 10:58N 59°54' E 010°45'0 0.0
2017-Nov-11 10:28N 59°54' E 010°45'0 0.0
2017-Nov-11 09:58N 59°54' E 010°45'0 0.0
2017-Nov-11 09:30N 59°54' E 010°45'3 5.7
2017-Nov-11 09:01N 59°53' E 010°40'816.1
2017-Nov-11 08:31N 59°45' E 010°34'713.2
2017-Nov-11 08:00N 59°39' E 010°37'917.5
2017-Nov-11 07:30N 59°30' E 010°35'917.1
2017-Nov-11 07:00N 59°22' E 010°36'917.1
2017-Nov-11 06:30N 59°13' E 010°39'817.0
2017-Nov-11 06:00N 59°05' E 010°42'917.3
2017-Nov-11 05:30N 58°56' E 010°44'917.4
2017-Nov-11 05:00N 58°48' E 010°46'917.1
2017-Nov-11 04:30N 58°39' E 010°49'917.3
2017-Nov-11 04:00N 58°31' E 010°53'917.5
2017-Nov-11 03:30N 58°22' E 010°56'917.7
2017-Nov-11 03:00N 58°14' E 010°60'917.4
2017-Nov-11 02:29N 58°05' E 011°04'816.8
2017-Nov-11 01:59N 57°57' E 011°07'816.1
2017-Nov-11 01:30N 57°49' E 011°10'815.9
2017-Nov-11 01:00N 57°41' E 011°13'816.0
2017-Nov-11 00:30N 57°34' E 011°19'816.1
2017-Nov-11 00:00N 57°27' E 011°27'815.6
2017-Nov-10 23:30N 57°20' E 011°32'915.8
2017-Nov-10 22:57N 57°11' E 011°37'815.6
2017-Nov-10 22:27N 57°04' E 011°42'5312.0
2017-Nov-10 18:03N 56°16' E 012°21'115.6
2017-Nov-10 17:59N 56°15' E 012°22'715.7
2017-Nov-10 17:30N 56°09' E 012°30'817.0
2017-Nov-10 17:00N 56°03' E 012°40'816.8
2017-Nov-10 16:30N 55°55' E 012°44'815.8
2017-Nov-10 16:00N 55°47' E 012°42'611.5
2017-Nov-10 15:30N 55°42' E 012°36'0 0.0
2017-Nov-10 14:59N 55°42' E 012°36'0 0.0
2017-Nov-10 14:29N 55°42' E 012°36'0 0.0
2017-Nov-10 13:59N 55°42' E 012°36'0 0.0
2017-Nov-10 13:29N 55°42' E 012°36'0 0.0
2017-Nov-10 12:59N 55°42' E 012°36'0 0.0
2017-Nov-10 12:29N 55°42' E 012°36'0 0.0
2017-Nov-10 11:59N 55°42' E 012°36'0 0.0
2017-Nov-10 11:29N 55°42' E 012°36'0 0.0
2017-Nov-10 10:59N 55°42' E 012°36'0 0.0
2017-Nov-10 10:29N 55°42' E 012°36'0 0.0
2017-Nov-10 09:59N 55°42' E 012°36'0 0.0
2017-Nov-10 09:29N 55°42' E 012°36'0 0.0
2017-Nov-10 08:59N 55°42' E 012°36'0 0.7
2017-Nov-10 08:31N 55°42' E 012°36'611.6
2017-Nov-10 08:01N 55°47' E 012°42'815.3
2017-Nov-10 07:30N 55°55' E 012°39'815.7
2017-Nov-10 07:01N 56°03' E 012°39'816.7
2017-Nov-10 06:31N 56°09' E 012°29'816.0
2017-Nov-10 06:00N 56°16' E 012°24'6216.5
2017-Nov-10 02:17N 57°15' E 011°51'517.0
2017-Nov-10 02:00N 57°19' E 011°47'816.8
2017-Nov-10 01:30N 57°27' E 011°39'816.8
2017-Nov-10 01:00N 57°34' E 011°32'917.3
2017-Nov-10 00:31N 57°42' E 011°27'  
Track history (hours):
 
Tides and Currents Weather Stations Pressure Air Temp Water Temp Dewpoint Dewpoint Depression Visibility Wind Speed Wind Dir Waves Ship Positions

Crown Of Scandinavia

Last reported at 2017-Nov-20 00:30 UTC. Time now 2017-Nov-22 07:22 UTC.
Position N 57°35' E 011°19'.

Length 171 m; draft 6.3 m.

Type: Ship. MMSI: 219592000.

Date/timePositionNaut miles runAvg speedWind from/ knotsBaromVisibWave heightAir tempDewpointWater temp
2017-Nov-20 00:30N 57°35' E 011°19'917.0
2017-Nov-20 00:00N 57°43' E 011°13'916.8
2017-Nov-19 23:29N 57°51' E 011°07'816.8
2017-Nov-19 23:00N 57°58' E 011°01'816.4
2017-Nov-19 22:30N 58°06' E 010°55'816.3
2017-Nov-19 22:00N 58°13' E 010°49'1215.8
2017-Nov-19 21:13N 58°25' E 010°40'315.9
2017-Nov-19 21:00N 58°28' E 010°38'815.9
2017-Nov-19 20:30N 58°36' E 010°36'816.1
2017-Nov-19 20:00N 58°44' E 010°35'816.4
2017-Nov-19 19:30N 58°52' E 010°35'917.1
2017-Nov-19 19:00N 59°01' E 010°37'917.6
2017-Nov-19 18:30N 59°10' E 010°38'918.0
2017-Nov-19 18:00N 59°18' E 010°36'917.9
2017-Nov-19 17:30N 59°27' E 010°33'816.8
2017-Nov-19 17:00N 59°35' E 010°38'714.7
2017-Nov-19 16:30N 59°43' E 010°35'816.0
2017-Nov-19 16:00N 59°50' E 010°35'611.9
2017-Nov-19 15:30N 59°54' E 010°45'0 0.4
2017-Nov-19 15:00N 59°54' E 010°45'0 0.0
2017-Nov-19 14:29N 59°54' E 010°45'0 0.0
2017-Nov-19 13:59N 59°54' E 010°45'0 0.0
2017-Nov-19 13:29N 59°54' E 010°45'0 0.0
2017-Nov-19 12:59N 59°54' E 010°45'0 0.0
2017-Nov-19 12:29N 59°54' E 010°45'0 0.0
2017-Nov-19 11:59N 59°54' E 010°45'0 0.0
2017-Nov-19 11:29N 59°54' E 010°45'0 0.0
2017-Nov-19 10:59N 59°54' E 010°45'0 0.0
2017-Nov-19 10:29N 59°54' E 010°45'0 0.0
2017-Nov-19 09:59N 59°54' E 010°45'0 0.0
2017-Nov-19 09:29N 59°54' E 010°45'0 0.0
2017-Nov-19 08:59N 59°54' E 010°45'0 0.9
2017-Nov-19 08:30N 59°54' E 010°44'713.9
2017-Nov-19 08:00N 59°49' E 010°35'714.9
2017-Nov-19 07:30N 59°41' E 010°36'713.6
2017-Nov-19 07:00N 59°35' E 010°38'815.6
2017-Nov-19 06:30N 59°27' E 010°34'815.6
2017-Nov-19 06:00N 59°19' E 010°36'815.8
2017-Nov-19 05:30N 59°12' E 010°39'815.8
2017-Nov-19 05:00N 59°04' E 010°41'815.7
2017-Nov-19 04:30N 58°56' E 010°44'815.7
2017-Nov-19 04:00N 58°48' E 010°46'815.0
2017-Nov-19 03:30N 58°41' E 010°49'917.3
2017-Nov-19 03:00N 58°32' E 010°52'917.3
2017-Nov-19 02:30N 58°24' E 010°56'917.5
2017-Nov-19 02:00N 58°16' E 011°02'918.0
2017-Nov-19 01:30N 58°08' E 011°08'917.3
2017-Nov-19 01:00N 57°60' E 011°15'917.2
2017-Nov-19 00:31N 57°52' E 011°20'816.6
2017-Nov-19 00:01N 57°44' E 011°26'816.9
2017-Nov-18 23:31N 57°36' E 011°31'917.0
2017-Nov-18 23:00N 57°28' E 011°37'816.4
2017-Nov-18 22:30N 57°21' E 011°44'816.5
2017-Nov-18 22:00N 57°14' E 011°52'5815.9
2017-Nov-18 18:21N 56°18' E 012°24'615.7
2017-Nov-18 18:00N 56°13' E 012°27'714.9
2017-Nov-18 17:30N 56°07' E 012°33'714.1
2017-Nov-18 17:00N 56°01' E 012°41'815.8
2017-Nov-18 16:30N 55°53' E 012°44'714.4
2017-Nov-18 16:00N 55°46' E 012°42'510.6
2017-Nov-18 15:30N 55°42' E 012°36'0 0.0
2017-Nov-18 15:00N 55°42' E 012°36'0 0.0
2017-Nov-18 14:30N 55°42' E 012°36'0 0.0
2017-Nov-18 14:00N 55°42' E 012°36'0 0.0
2017-Nov-18 13:30N 55°42' E 012°36'0 0.0
2017-Nov-18 13:00N 55°42' E 012°36'0 0.0
2017-Nov-18 12:30N 55°42' E 012°36'0 0.0
2017-Nov-18 12:00N 55°42' E 012°36'0 0.0
2017-Nov-18 11:30N 55°42' E 012°36'0 0.0
2017-Nov-18 11:00N 55°42' E 012°36'0 0.0
2017-Nov-18 10:31N 55°42' E 012°36'2 4.0
2017-Nov-18 10:01N 55°43' E 012°39'815.4
2017-Nov-18 09:31N 55°51' E 012°41'815.8
2017-Nov-18 09:01N 55°59' E 012°40'816.7
2017-Nov-18 08:31N 56°06' E 012°33'917.8
2017-Nov-18 08:00N 56°13' E 012°23'5717.7
2017-Nov-18 04:46N 57°05' E 011°39'517.8
2017-Nov-18 04:29N 57°10' E 011°35'817.8
2017-Nov-18 04:00N 57°18' E 011°30'816.0
2017-Nov-18 03:31N 57°25' E 011°25'815.4
2017-Nov-18 03:00N 57°33' E 011°22'817.0
2017-Nov-18 02:30N 57°40' E 011°13'816.7
2017-Nov-18 02:00N 57°48' E 011°08'916.2
2017-Nov-18 01:28N 57°56' E 011°02'816.0
2017-Nov-18 00:59N 58°03' E 010°57'815.6
2017-Nov-18 00:30N 58°10' E 010°52'915.6
2017-Nov-17 23:55N 58°19' E 010°45'614.9
2017-Nov-17 23:30N 58°24' E 010°41'714.9
2017-Nov-17 23:00N 58°31' E 010°36'715.0
2017-Nov-17 22:30N 58°38' E 010°31'815.4
2017-Nov-17 22:01N 58°45' E 010°26'815.6
2017-Nov-17 21:31N 58°53' E 010°21'612.6
2017-Nov-17 21:01N 58°59' E 010°26'612.8
2017-Nov-17 20:30N 59°03' E 010°35'713.1
2017-Nov-17 20:00N 59°10' E 010°38'611.9
2017-Nov-17 19:30N 59°16' E 010°36'611.2
2017-Nov-17 19:00N 59°21' E 010°35'611.5
2017-Nov-17 18:31N 59°27' E 010°33'611.7
2017-Nov-17 18:00N 59°32' E 010°36'510.8
2017-Nov-17 17:31N 59°38' E 010°37'611.1
2017-Nov-17 17:00N 59°43' E 010°34'611.2
2017-Nov-17 16:30N 59°49' E 010°34'611.4
2017-Nov-17 16:01N 59°53' E 010°41'2 4.2
2017-Nov-17 15:30N 59°54' E 010°45'0 0.0
2017-Nov-17 14:59N 59°54' E 010°45'0 0.0
2017-Nov-17 14:29N 59°54' E 010°45'0 0.0
2017-Nov-17 13:59N 59°54' E 010°45'0 0.0
2017-Nov-17 13:29N 59°54' E 010°45'0 0.0
2017-Nov-17 12:59N 59°54' E 010°45'0 0.0
2017-Nov-17 12:29N 59°54' E 010°45'0 0.0
2017-Nov-17 11:59N 59°54' E 010°45'0 0.0
2017-Nov-17 11:29N 59°54' E 010°45'0 0.0
2017-Nov-17 10:59N 59°54' E 010°45'0 0.0
2017-Nov-17 10:29N 59°54' E 010°45'0 0.0
2017-Nov-17 09:59N 59°54' E 010°45'0 0.0
2017-Nov-17 09:29N 59°54' E 010°45'0 0.0
2017-Nov-17 08:59N 59°54' E 010°45'0 0.6
2017-Nov-17 08:30N 59°54' E 010°45'510.7
2017-Nov-17 08:01N 59°51' E 010°37'714.2
2017-Nov-17 07:30N 59°44' E 010°35'713.3
2017-Nov-17 07:00N 59°37' E 010°38'816.5
2017-Nov-17 06:31N 59°29' E 010°35'816.7
2017-Nov-17 06:01N 59°21' E 010°36'917.5
2017-Nov-17 05:31N 59°12' E 010°38'917.1
2017-Nov-17 05:01N 59°04' E 010°41'816.6
2017-Nov-17 04:31N 58°55' E 010°43'816.3
2017-Nov-17 04:00N 58°47' E 010°44'816.6
2017-Nov-17 03:31N 58°39' E 010°46'917.6
2017-Nov-17 03:00N 58°30' E 010°48'917.6
2017-Nov-17 02:30N 58°21' E 010°49'917.4
2017-Nov-17 02:00N 58°13' E 010°50'917.2
2017-Nov-17 01:29N 58°04' E 010°50'816.8
2017-Nov-17 01:00N 57°56' E 010°52'816.1
2017-Nov-17 00:31N 57°48' E 010°53'815.6
2017-Nov-17 00:00N 57°42' E 011°03'815.9
2017-Nov-16 23:31N 57°36' E 011°12'816.1
2017-Nov-16 23:00N 57°30' E 011°23'816.8
2017-Nov-16 22:31N 57°23' E 011°30'917.1
2017-Nov-16 22:00N 57°15' E 011°36'816.7
2017-Nov-16 21:30N 57°07' E 011°40'5715.8
2017-Nov-16 17:53N 56°14' E 012°22'718.1
2017-Nov-16 17:31N 56°09' E 012°30'817.0
2017-Nov-16 17:01N 56°02' E 012°40'917.9
2017-Nov-16 16:31N 55°54' E 012°44'816.7
2017-Nov-16 16:01N 55°46' E 012°41'5 9.5
2017-Nov-16 15:30N 55°42' E 012°36'0 0.0
2017-Nov-16 15:00N 55°42' E 012°36'0 0.0
2017-Nov-16 14:30N 55°42' E 012°36'0 0.0
2017-Nov-16 14:00N 55°42' E 012°36'0 0.0
2017-Nov-16 13:30N 55°42' E 012°36'0 0.0
2017-Nov-16 13:00N 55°42' E 012°36'0 0.0
2017-Nov-16 12:30N 55°42' E 012°36'0 0.0
2017-Nov-16 12:00N 55°42' E 012°36'0 0.0
2017-Nov-16 11:30N 55°42' E 012°36'0 0.0
2017-Nov-16 10:57N 55°42' E 012°36'0 0.0
2017-Nov-16 10:30N 55°42' E 012°36'0 0.0
2017-Nov-16 10:00N 55°42' E 012°36'0 0.0
2017-Nov-16 09:30N 55°42' E 012°36'0 0.0
2017-Nov-16 09:00N 55°42' E 012°36'0 1.0
2017-Nov-16 08:30N 55°42' E 012°37'612.5
2017-Nov-16 08:00N 55°48' E 012°42'714.7
2017-Nov-16 07:31N 55°55' E 012°39'714.9
2017-Nov-16 07:00N 56°02' E 012°39'713.8
2017-Nov-16 06:30N 56°08' E 012°31'815.3
2017-Nov-16 06:00N 56°14' E 012°22'815.8
2017-Nov-16 05:29N 56°20' E 012°13'4016.2
2017-Nov-16 03:03N 56°56' E 011°45'216.7
2017-Nov-16 02:55N 56°58' E 011°43'716.9
2017-Nov-16 02:30N 57°05' E 011°38'917.1
2017-Nov-16 02:00N 57°13' E 011°32'917.4
2017-Nov-16 01:31N 57°21' E 011°28'916.9
2017-Nov-16 01:00N 57°29' E 011°24'816.6
2017-Nov-16 00:31N 57°37' E 011°20'817.0
2017-Nov-16 00:01N 57°46' E 011°18'916.9
2017-Nov-15 23:30N 57°54' E 011°16'816.3
2017-Nov-15 23:00N 58°02' E 011°13'816.1
2017-Nov-15 22:29N 58°10' E 011°08'816.5
2017-Nov-15 22:00N 58°17' E 011°02'816.4
2017-Nov-15 21:30N 58°25' E 010°57'816.7
2017-Nov-15 21:01N 58°33' E 010°52'917.1
2017-Nov-15 20:31N 58°41' E 010°46'917.3
2017-Nov-15 20:01N 58°49' E 010°44'917.1
2017-Nov-15 19:30N 58°58' E 010°41'917.1
2017-Nov-15 19:00N 59°06' E 010°39'917.3
2017-Nov-15 18:30N 59°15' E 010°37'917.2
2017-Nov-15 18:00N 59°23' E 010°34'816.5
2017-Nov-15 17:30N 59°32' E 010°35'816.2
2017-Nov-15 17:00N 59°40' E 010°37'511.0
2017-Nov-15 16:31N 59°45' E 010°33'815.0
2017-Nov-15 16:01N 59°52' E 010°38'4 8.0
2017-Nov-15 15:30N 59°54' E 010°45'0 0.0
2017-Nov-15 15:00N 59°54' E 010°45'0 0.0
2017-Nov-15 14:28N 59°54' E 010°45'0 0.0
2017-Nov-15 13:58N 59°54' E 010°45'0 0.0
2017-Nov-15 13:28N 59°54' E 010°45'0 0.0
2017-Nov-15 12:58N 59°54' E 010°45'0 0.0
2017-Nov-15 12:28N 59°54' E 010°45'0 0.0
2017-Nov-15 11:58N 59°54' E 010°45'0 0.0
2017-Nov-15 11:28N 59°54' E 010°45'0 0.0
2017-Nov-15 10:58N 59°54' E 010°45'0 0.0
2017-Nov-15 10:28N 59°54' E 010°45'0 0.0
2017-Nov-15 09:58N 59°54' E 010°45'0 0.0
2017-Nov-15 09:28N 59°54' E 010°45'0 0.0
2017-Nov-15 08:58N 59°54' E 010°45'0 0.7
2017-Nov-15 08:30N 59°54' E 010°45'510.1
2017-Nov-15 08:00N 59°51' E 010°37'714.4
2017-Nov-15 07:31N 59°44' E 010°35'612.7
2017-Nov-15 07:01N 59°37' E 010°38'816.4
2017-Nov-15 06:31N 59°29' E 010°35'816.5
2017-Nov-15 06:01N 59°21' E 010°36'816.7
2017-Nov-15 05:31N 59°13' E 010°38'816.6
2017-Nov-15 05:01N 59°05' E 010°38'917.1
2017-Nov-15 04:31N 58°56' E 010°36'917.0
2017-Nov-15 04:01N 58°48' E 010°34'816.9
2017-Nov-15 03:31N 58°39' E 010°36'917.3
2017-Nov-15 03:00N 58°31' E 010°37'917.2
2017-Nov-15 02:30N 58°22' E 010°43'816.7
2017-Nov-15 02:00N 58°15' E 010°48'816.6
2017-Nov-15 01:29N 58°06' E 010°53'816.4
2017-Nov-15 01:00N 57°59' E 010°59'816.5
2017-Nov-15 00:30N 57°51' E 011°04'816.2
2017-Nov-15 00:01N 57°44' E 011°10'816.3
2017-Nov-14 23:30N 57°37' E 011°18'816.6
2017-Nov-14 23:00N 57°31' E 011°29'816.7
2017-Nov-14 22:30N 57°25' E 011°40'917.0
2017-Nov-14 21:59N 57°17' E 011°48'1016.6
2017-Nov-14 21:21N 57°08' E 011°57'5415.9
2017-Nov-14 17:59N 56°17' E 012°26'715.2
2017-Nov-14 17:31N 56°10' E 012°30'816.1
2017-Nov-14 17:01N 56°04' E 012°39'816.1
2017-Nov-14 16:31N 55°56' E 012°43'816.0
2017-Nov-14 16:01N 55°48' E 012°43'713.0
2017-Nov-14 15:30N 55°42' E 012°37'1 1.0
2017-Nov-14 14:57N 55°42' E 012°36'0 0.0
2017-Nov-14 14:30N 55°42' E 012°36'0 0.0
2017-Nov-14 14:00N 55°42' E 012°36'0 0.0
2017-Nov-14 13:30N 55°42' E 012°36'0 0.0
2017-Nov-14 13:00N 55°42' E 012°36'0 0.0
2017-Nov-14 12:30N 55°42' E 012°36'0 0.0
2017-Nov-14 12:00N 55°42' E 012°36'0 0.0
2017-Nov-14 11:30N 55°42' E 012°36'0 0.0
2017-Nov-14 11:00N 55°42' E 012°36'0 0.0
2017-Nov-14 10:30N 55°42' E 012°36'0 0.0
2017-Nov-14 10:00N 55°42' E 012°36'0 0.0
2017-Nov-14 09:30N 55°42' E 012°36'0 0.0
2017-Nov-14 09:00N 55°42' E 012°36'0 0.7
2017-Nov-14 08:29N 55°42' E 012°36'510.4
2017-Nov-14 08:00N 55°46' E 012°41'714.7
2017-Nov-14 07:30N 55°54' E 012°40'714.7
2017-Nov-14 07:00N 56°01' E 012°40'714.3
2017-Nov-14 06:30N 56°07' E 012°32'714.8
2017-Nov-14 06:00N 56°12' E 012°23'5616.6
2017-Nov-14 02:37N 57°03' E 011°41'317.1
2017-Nov-14 02:26N 57°06' E 011°39'716.7
2017-Nov-14 02:00N 57°13' E 011°34'816.7
2017-Nov-14 01:30N 57°21' E 011°29'816.4
2017-Nov-14 01:01N 57°29' E 011°24'816.4
2017-Nov-14 00:30N 57°37' E 011°23'816.3
2017-Nov-14 00:01N 57°45' E 011°22'816.1
2017-Nov-13 23:31N 57°53' E 011°19'816.2
2017-Nov-13 23:00N 58°01' E 011°14'816.2
2017-Nov-13 22:30N 58°08' E 011°08'816.0
2017-Nov-13 22:00N 58°16' E 011°03'9 0.4
2017-Nov-13 02:01N 58°17' E 010°47'916.8
2017-Nov-13 01:29N 58°09' E 010°53'816.5
2017-Nov-13 01:00N 58°01' E 010°58'815.8
2017-Nov-13 00:30N 57°54' E 011°03'815.2
2017-Nov-13 00:01N 57°47' E 011°08'815.6
2017-Nov-12 23:30N 57°39' E 011°13'816.2
2017-Nov-12 23:00N 57°32' E 011°21'816.1
2017-Nov-12 22:30N 57°25' E 011°29'816.4
2017-Nov-12 22:00N 57°18' E 011°34'816.9
2017-Nov-12 21:30N 57°10' E 011°38'1116.7
2017-Nov-12 20:52N 56°60' E 011°46'5016.5
2017-Nov-12 17:50N 56°15' E 012°25'516.5
2017-Nov-12 17:30N 56°10' E 012°30'815.7
2017-Nov-12 17:01N 56°04' E 012°39'815.7
2017-Nov-12 16:31N 55°57' E 012°43'815.3
2017-Nov-12 16:00N 55°49' E 012°44'714.3
2017-Nov-12 15:30N 55°43' E 012°37'1 2.0
2017-Nov-12 15:00N 55°42' E 012°36'0 0.0
2017-Nov-12 14:29N 55°42' E 012°36'0 0.0
2017-Nov-12 13:59N 55°42' E 012°36'0 0.0
2017-Nov-12 13:29N 55°42' E 012°36'0 0.0
2017-Nov-12 12:59N 55°42' E 012°36'0 0.0
2017-Nov-12 12:29N 55°42' E 012°36'0 0.0
2017-Nov-12 11:59N 55°42' E 012°36'0 0.0
2017-Nov-12 11:29N 55°42' E 012°36'0 0.0
2017-Nov-12 10:59N 55°42' E 012°36'0 0.0
2017-Nov-12 10:29N 55°42' E 012°36'0 0.0
2017-Nov-12 09:59N 55°42' E 012°36'0 0.0
2017-Nov-12 09:29N 55°42' E 012°36'0 0.0
2017-Nov-12 08:59N 55°42' E 012°36'1 1.7
2017-Nov-12 08:31N 55°43' E 012°37'714.3
2017-Nov-12 08:00N 55°49' E 012°42'815.4
2017-Nov-12 07:30N 55°57' E 012°40'815.2
2017-Nov-12 07:00N 56°04' E 012°37'918.6
2017-Nov-12 06:31N 56°12' E 012°27'6818.8
2017-Nov-12 02:53N 57°17' E 011°50'718.9
2017-Nov-12 02:30N 57°23' E 011°44'919.0
2017-Nov-12 02:00N 57°31' E 011°35'1019.4
2017-Nov-12 01:30N 57°40' E 011°26'918.4
2017-Nov-12 01:00N 57°48' E 011°18'918.1
2017-Nov-12 00:30N 57°56' E 011°10'1018.2
2017-Nov-11 23:58N 58°04' E 011°01'613.1
2017-Nov-11 23:30N 58°09' E 010°54'611.4
2017-Nov-11 23:00N 58°04' E 010°57'612.4
2017-Nov-11 22:30N 58°10' E 010°53'815.1
2017-Nov-11 21:59N 58°16' E 010°46'714.7
2017-Nov-11 21:30N 58°23' E 010°41'714.4
2017-Nov-11 21:00N 58°30' E 010°38'714.7
2017-Nov-11 20:30N 58°37' E 010°36'815.5
2017-Nov-11 20:00N 58°45' E 010°35'815.9
2017-Nov-11 19:30N 58°53' E 010°35'816.2
2017-Nov-11 19:00N 59°01' E 010°37'816.9
2017-Nov-11 18:30N 59°09' E 010°38'817.0
2017-Nov-11 18:00N 59°18' E 010°36'816.8
2017-Nov-11 17:30N 59°26' E 010°33'816.2
2017-Nov-11 17:00N 59°34' E 010°37'714.9
2017-Nov-11 16:30N 59°41' E 010°36'815.1
2017-Nov-11 16:00N 59°49' E 010°35'714.1
2017-Nov-11 15:30N 59°54' E 010°44'0 0.8
2017-Nov-11 14:58N 59°54' E 010°45'0 0.0
2017-Nov-11 14:28N 59°54' E 010°45'0 0.0
2017-Nov-11 13:58N 59°54' E 010°45'0 0.0
2017-Nov-11 13:28N 59°54' E 010°45'0 0.0
2017-Nov-11 12:58N 59°54' E 010°45'0 0.0
2017-Nov-11 12:28N 59°54' E 010°45'0 0.0
2017-Nov-11 11:58N 59°54' E 010°45'0 0.0
2017-Nov-11 11:28N 59°54' E 010°45'0 0.0
2017-Nov-11 10:58N 59°54' E 010°45'0 0.0
2017-Nov-11 10:28N 59°54' E 010°45'0 0.0
2017-Nov-11 09:58N 59°54' E 010°45'0 0.0
2017-Nov-11 09:30N 59°54' E 010°45'3 5.7
2017-Nov-11 09:01N 59°53' E 010°40'816.1
2017-Nov-11 08:31N 59°45' E 010°34'713.2
2017-Nov-11 08:00N 59°39' E 010°37'917.5
2017-Nov-11 07:30N 59°30' E 010°35'917.1
2017-Nov-11 07:00N 59°22' E 010°36'917.1
2017-Nov-11 06:30N 59°13' E 010°39'817.0
2017-Nov-11 06:00N 59°05' E 010°42'917.3
2017-Nov-11 05:30N 58°56' E 010°44'917.4
2017-Nov-11 05:00N 58°48' E 010°46'917.1
2017-Nov-11 04:30N 58°39' E 010°49'917.3
2017-Nov-11 04:00N 58°31' E 010°53'917.5
2017-Nov-11 03:30N 58°22' E 010°56'917.7
2017-Nov-11 03:00N 58°14' E 010°60'917.4
2017-Nov-11 02:29N 58°05' E 011°04'816.8
2017-Nov-11 01:59N 57°57' E 011°07'816.1
2017-Nov-11 01:30N 57°49' E 011°10'815.9
2017-Nov-11 01:00N 57°41' E 011°13'816.0
2017-Nov-11 00:30N 57°34' E 011°19'816.1
2017-Nov-11 00:00N 57°27' E 011°27'815.6
2017-Nov-10 23:30N 57°20' E 011°32'915.8
2017-Nov-10 22:57N 57°11' E 011°37'815.6
2017-Nov-10 22:27N 57°04' E 011°42'5312.0
2017-Nov-10 18:03N 56°16' E 012°21'115.6
2017-Nov-10 17:59N 56°15' E 012°22'715.7
2017-Nov-10 17:30N 56°09' E 012°30'817.0
2017-Nov-10 17:00N 56°03' E 012°40'816.8
2017-Nov-10 16:30N 55°55' E 012°44'815.8
2017-Nov-10 16:00N 55°47' E 012°42'611.5
2017-Nov-10 15:30N 55°42' E 012°36'0 0.0
2017-Nov-10 14:59N 55°42' E 012°36'0 0.0
2017-Nov-10 14:29N 55°42' E 012°36'0 0.0
2017-Nov-10 13:59N 55°42' E 012°36'0 0.0
2017-Nov-10 13:29N 55°42' E 012°36'0 0.0
2017-Nov-10 12:59N 55°42' E 012°36'0 0.0
2017-Nov-10 12:29N 55°42' E 012°36'0 0.0
2017-Nov-10 11:59N 55°42' E 012°36'0 0.0
2017-Nov-10 11:29N 55°42' E 012°36'0 0.0
2017-Nov-10 10:59N 55°42' E 012°36'0 0.0
2017-Nov-10 10:29N 55°42' E 012°36'0 0.0
2017-Nov-10 09:59N 55°42' E 012°36'0 0.0
2017-Nov-10 09:29N 55°42' E 012°36'0 0.0
2017-Nov-10 08:59N 55°42' E 012°36'0 0.7
2017-Nov-10 08:31N 55°42' E 012°36'611.6
2017-Nov-10 08:01N 55°47' E 012°42'815.3
2017-Nov-10 07:30N 55°55' E 012°39'815.7
2017-Nov-10 07:01N 56°03' E 012°39'816.7
2017-Nov-10 06:31N 56°09' E 012°29'816.0
2017-Nov-10 06:00N 56°16' E 012°24'6216.5
2017-Nov-10 02:17N 57°15' E 011°51'517.0
2017-Nov-10 02:00N 57°19' E 011°47'816.8
2017-Nov-10 01:30N 57°27' E 011°39'816.8
2017-Nov-10 01:00N 57°34' E 011°32'917.3
2017-Nov-10 00:31N 57°42' E 011°27'  

Dump ship's entire track history